TimePDT,TemperatureF,Dew PointF,Humidity,Sea Level PressureIn,VisibilityMPH,Wind Direction,Wind SpeedMPH,Gust SpeedMPH,PrecipitationIn,Events,Conditions,WindDirDegrees,DateUTC
12:53 AM,55.9,51.1,84,29.97,10.0,ENE,5.8,-,N/A,,Clear,60,2013-09-04 07:53:00
1:53 AM,55.0,51.1,86,29.97,10.0,NE,3.5,-,N/A,,Clear,50,2013-09-04 08:53:00
2:53 AM,50.0,48.0,93,30.00,10.0,Calm,Calm,-,N/A,,Clear,0,2013-09-04 09:53:00
3:53 AM,52.0,48.9,89,30.01,10.0,NE,6.9,-,N/A,,Partly Cloudy,50,2013-09-04 10:53:00
4:53 AM,51.1,48.9,92,30.01,10.0,Calm,Calm,-,N/A,,Mostly Cloudy,0,2013-09-04 11:53:00
5:53 AM,53.1,51.1,93,30.00,10.0,NNE,4.6,-,N/A,,Scattered Clouds,20,2013-09-04 12:53:00
6:53 AM,54.0,51.1,90,30.02,10.0,Calm,Calm,-,N/A,,Scattered Clouds,0,2013-09-04 13:53:00
7:53 AM,55.9,54.0,93,30.07,10.0,South,5.8,-,N/A,,Mostly Cloudy,170,2013-09-04 14:53:00
8:53 AM,64.0,57.0,78,30.04,10.0,North,5.8,-,N/A,,Partly Cloudy,10,2013-09-04 15:53:00
9:53 AM,70.0,55.9,61,30.03,10.0,ESE,6.9,-,N/A,,Clear,110,2013-09-04 16:53:00
10:53 AM,75.0,55.0,50,30.03,10.0,East,9.2,-,N/A,,Mostly Cloudy,90,2013-09-04 17:53:00
11:53 AM,80.1,55.9,43,30.01,10.0,NNE,11.5,20.7,N/A,,Partly Cloudy,30,2013-09-04 18:53:00
12:53 PM,82.9,53.1,36,29.99,10.0,NE,12.7,19.6,N/A,,Clear,50,2013-09-04 19:53:00
1:45 PM,84.2,55.4,37,30.07,10.0,NE,17.3,24.2,N/A,Thunderstorm,Clear,40,2013-09-04 20:45:00
1:53 PM,82.9,55.0,38,29.96,10.0,NE,17.3,-,N/A,Thunderstorm,Partly Cloudy,40,2013-09-04 20:53:00
2:35 PM,66.2,57.2,73,30.09,2.5,WSW,10.4,43.7,0.02,Rain-Thunderstorm,Thunderstorms and Rain,250,2013-09-04 21:35:00
2:49 PM,68.0,59.0,73,30.06,10.0,Variable,6.9,-,0.07,Rain-Thunderstorm,Light Thunderstorms and Rain,0,2013-09-04 21:49:00
2:53 PM,68.0,61.0,78,30.00,10.0,WNW,8.1,-,0.07,Thunderstorm,Thunderstorm,300,2013-09-04 21:53:00
3:14 PM,73.4,64.4,73,30.05,10.0,NNW,3.5,-,N/A,,Mostly Cloudy,330,2013-09-04 22:14:00
3:53 PM,75.9,61.0,60,29.96,10.0,NNE,8.1,-,N/A,,Mostly Cloudy,30,2013-09-04 22:53:00
4:53 PM,79.0,60.1,52,29.93,10.0,NNE,11.5,-,N/A,,Partly Cloudy,20,2013-09-04 23:53:00
5:53 PM,73.9,57.9,57,29.92,10.0,NNE,9.2,-,N/A,,Clear,20,2013-09-05 00:53:00
6:11 PM,73.4,55.4,53,30.00,10.0,NNE,11.5,-,N/A,Thunderstorm,Partly Cloudy,20,2013-09-05 01:11:00
6:26 PM,71.6,55.4,57,30.00,10.0,NNE,10.4,-,N/A,,Scattered Clouds,20,2013-09-05 01:26:00
6:53 PM,70.0,55.9,61,29.93,10.0,West,8.1,-,N/A,,Clear,280,2013-09-05 01:53:00
7:45 PM,66.2,57.2,73,30.00,10.0,North,10.4,-,0.00,Rain-Thunderstorm,Light Rain,350,2013-09-05 02:45:00
7:53 PM,66.9,57.0,70,29.94,10.0,North,8.1,-,0.00,Thunderstorm,Partly Cloudy,360,2013-09-05 02:53:00
8:06 PM,66.2,55.4,68,30.02,10.0,Variable,3.5,-,N/A,Thunderstorm,Partly Cloudy,0,2013-09-05 03:06:00
8:38 PM,62.6,55.4,77,30.01,10.0,NNE,8.1,-,N/A,,Clear,20,2013-09-05 03:38:00
8:53 PM,61.0,55.0,81,29.94,10.0,Calm,Calm,-,N/A,,Clear,0,2013-09-05 03:53:00
9:53 PM,66.9,57.0,70,29.96,10.0,East,3.5,-,0.00,Rain,Light Rain,80,2013-09-05 04:53:00
10:53 PM,61.0,57.0,87,29.94,10.0,NNW,9.2,-,0.01,,Clear,330,2013-09-05 05:53:00
11:53 PM,55.9,54.0,93,29.94,10.0,East,6.9,-,N/A,,Clear,100,2013-09-05 06:53:00